Morgenster — PHMY — position and weather

sailwx.info

Track history (hours):
 
Tides and Currents Weather Stations Pressure Air Temp Water Temp Dewpoint Dewpoint Depression Visibility Wind Speed Wind Dir Waves Ship Positions

Morgenster

Last reported at 2017-Mar-25 03:24 UTC. Time now 2017-Mar-25 03:58 UTC.
Position N 52°57' E 004°46'.

Length 38 m; draft 2.4 m.

Type: Sailing vessel. MMSI: 245136000.

Date/timePositionNaut miles runAvg speedWind from/ knotsBaromVisibWave heightAir tempDewpointWater temp
2017-Mar-25 03:24N 52°57' E 004°46'0 0.0
2017-Mar-25 02:33N 52°57' E 004°46'0 0.0
2017-Mar-25 01:33N 52°57' E 004°46'0 0.0
2017-Mar-25 00:24N 52°57' E 004°46'0 0.0
2017-Mar-24 23:21N 52°57' E 004°46'0 0.0
2017-Mar-24 22:21N 52°57' E 004°46'0 0.0
2017-Mar-24 21:33N 52°57' E 004°46'0 0.0
2017-Mar-24 20:33N 52°57' E 004°46'0 0.0
2017-Mar-24 19:18N 52°57' E 004°46'0 0.0
2017-Mar-24 18:27N 52°57' E 004°46'0 0.0
2017-Mar-24 17:33N 52°57' E 004°46'0 0.0
2017-Mar-24 16:33N 52°57' E 004°46'0 0.0
2017-Mar-24 15:33N 52°57' E 004°46'0 0.0
2017-Mar-24 14:33N 52°57' E 004°46'0 0.4
2017-Mar-24 13:33N 52°57' E 004°47'3 3.0
2017-Mar-24 12:33N 52°60' E 004°49'2 1.7
2017-Mar-24 11:33N 52°59' E 004°47'1 0.8
2017-Mar-24 10:33N 52°58' E 004°47'1 0.9
2017-Mar-24 09:33N 52°59' E 004°48'1 0.6
2017-Mar-24 08:32N 52°59' E 004°49'0 0.0
2017-Mar-24 07:32N 52°59' E 004°49'0 0.0
2017-Mar-24 06:32N 52°59' E 004°49'0 0.0
2017-Mar-24 05:14N 52°59' E 004°49'0 0.0
2017-Mar-24 04:32N 52°59' E 004°49'0 0.0
2017-Mar-24 03:20N 52°59' E 004°49'0 0.0
2017-Mar-24 02:29N 52°59' E 004°49'0 0.0
2017-Mar-24 01:26N 52°59' E 004°49'0 0.0
2017-Mar-24 00:32N 52°59' E 004°49'0 0.0
2017-Mar-23 23:29N 52°59' E 004°49'0 0.0
2017-Mar-23 22:20N 52°59' E 004°49'0 0.0
2017-Mar-23 21:23N 52°59' E 004°49'0 0.0
2017-Mar-23 20:32N 52°59' E 004°49'0 0.0
2017-Mar-23 19:32N 52°59' E 004°49'0 0.0
2017-Mar-23 18:32N 52°59' E 004°49'2 1.6
2017-Mar-23 17:32N 52°59' E 004°46'  
2017-Mar-20 10:33N 53°04' E 004°41'5 5.3
2017-Mar-20 09:33N 52°59' E 004°46'2 1.9
2017-Mar-20 08:34N 52°59' E 004°49'0 0.0
2017-Mar-20 07:33N 52°59' E 004°49'0 0.0
2017-Mar-20 06:32N 52°59' E 004°49'0 0.0
2017-Mar-20 05:34N 52°59' E 004°49'0 0.0
2017-Mar-20 04:34N 52°59' E 004°49'0 0.0
2017-Mar-20 03:34N 52°59' E 004°48'0 0.0
2017-Mar-20 02:34N 52°59' E 004°49'0 0.0
2017-Mar-20 01:32N 52°59' E 004°49'0 0.1
2017-Mar-20 00:31N 52°59' E 004°49'0 0.0
2017-Mar-19 23:33N 52°59' E 004°49'0 0.0
2017-Mar-19 22:32N 52°59' E 004°49'0 0.0
2017-Mar-19 21:33N 52°59' E 004°49'0 0.0
2017-Mar-19 20:32N 52°59' E 004°49'0 0.0
2017-Mar-19 19:34N 52°59' E 004°49'0 0.4
2017-Mar-19 18:33N 52°59' E 004°48'2 0.1
2017-Mar-19 04:30N 52°57' E 004°46'0 0.0
2017-Mar-19 03:27N 52°57' E 004°46'0 0.0
2017-Mar-19 02:30N 52°57' E 004°46'0 0.0
2017-Mar-19 01:33N 52°57' E 004°46'0 0.0
2017-Mar-19 00:21N 52°57' E 004°46'0 0.0
2017-Mar-18 23:09N 52°57' E 004°46'0 0.0
2017-Mar-18 22:33N 52°57' E 004°46'0 0.0
2017-Mar-18 20:27N 52°57' E 004°46'0 0.0
2017-Mar-18 19:33N 52°57' E 004°46'0 0.0
2017-Mar-18 14:09N 52°57' E 004°46'0 0.0
2017-Mar-18 13:27N 52°57' E 004°46'0 0.0
2017-Mar-18 12:21N 52°57' E 004°46'0 0.0
2017-Mar-18 11:27N 52°57' E 004°46'0 0.0
2017-Mar-18 10:21N 52°57' E 004°46'0 0.0
2017-Mar-18 09:33N 52°57' E 004°46'0 0.0
2017-Mar-18 08:27N 52°57' E 004°46'0 0.0
2017-Mar-18 07:21N 52°57' E 004°46'0 0.0
2017-Mar-18 06:30N 52°57' E 004°46'0 0.0
2017-Mar-17 22:21N 52°57' E 004°46'0 0.0
2017-Mar-17 21:33N 52°57' E 004°46'0 0.0
2017-Mar-17 20:09N 52°57' E 004°46'0 0.0
2017-Mar-17 19:18N 52°57' E 004°46'0 0.0
2017-Mar-17 18:18N 52°57' E 004°46'0 0.0
2017-Mar-17 05:33N 52°57' E 004°46'0 0.0
2017-Mar-17 01:15N 52°57' E 004°46'0 0.0
2017-Mar-17 00:24N 52°57' E 004°46'0 0.0
2017-Mar-16 18:33N 52°57' E 004°46'0 0.0
2017-Mar-16 17:33N 52°57' E 004°46'0 0.0
2017-Mar-16 16:33N 52°57' E 004°46'0 0.0
2017-Mar-16 14:18N 52°57' E 004°46'0 0.0
2017-Mar-15 10:19N 52°57' E 004°46'1 1.1
2017-Mar-15 09:33N 52°57' E 004°47'1 1.0
2017-Mar-15 08:33N 52°58' E 004°47'5 4.6
2017-Mar-15 07:28N 53°02' E 004°51'0 0.4
2017-Mar-15 06:31N 53°03' E 004°51'0 0.0
2017-Mar-15 05:31N 53°03' E 004°51'0 0.0
2017-Mar-15 04:31N 53°03' E 004°51'0 0.0
2017-Mar-15 03:31N 53°03' E 004°51'  
Track history (hours):
 
Tides and Currents Weather Stations Pressure Air Temp Water Temp Dewpoint Dewpoint Depression Visibility Wind Speed Wind Dir Waves Ship Positions

Morgenster

Last reported at 2017-Mar-25 03:24 UTC. Time now 2017-Mar-25 03:58 UTC.
Position N 52°57' E 004°46'.

Length 38 m; draft 2.4 m.

Type: Sailing vessel. MMSI: 245136000.

Date/timePositionNaut miles runAvg speedWind from/ knotsBaromVisibWave heightAir tempDewpointWater temp
2017-Mar-25 03:24N 52°57' E 004°46'0 0.0
2017-Mar-25 02:33N 52°57' E 004°46'0 0.0
2017-Mar-25 01:33N 52°57' E 004°46'0 0.0
2017-Mar-25 00:24N 52°57' E 004°46'0 0.0
2017-Mar-24 23:21N 52°57' E 004°46'0 0.0
2017-Mar-24 22:21N 52°57' E 004°46'0 0.0
2017-Mar-24 21:33N 52°57' E 004°46'0 0.0
2017-Mar-24 20:33N 52°57' E 004°46'0 0.0
2017-Mar-24 19:18N 52°57' E 004°46'0 0.0
2017-Mar-24 18:27N 52°57' E 004°46'0 0.0
2017-Mar-24 17:33N 52°57' E 004°46'0 0.0
2017-Mar-24 16:33N 52°57' E 004°46'0 0.0
2017-Mar-24 15:33N 52°57' E 004°46'0 0.0
2017-Mar-24 14:33N 52°57' E 004°46'0 0.4
2017-Mar-24 13:33N 52°57' E 004°47'3 3.0
2017-Mar-24 12:33N 52°60' E 004°49'2 1.7
2017-Mar-24 11:33N 52°59' E 004°47'1 0.8
2017-Mar-24 10:33N 52°58' E 004°47'1 0.9
2017-Mar-24 09:33N 52°59' E 004°48'1 0.6
2017-Mar-24 08:32N 52°59' E 004°49'0 0.0
2017-Mar-24 07:32N 52°59' E 004°49'0 0.0
2017-Mar-24 06:32N 52°59' E 004°49'0 0.0
2017-Mar-24 05:14N 52°59' E 004°49'0 0.0
2017-Mar-24 04:32N 52°59' E 004°49'0 0.0
2017-Mar-24 03:20N 52°59' E 004°49'0 0.0
2017-Mar-24 02:29N 52°59' E 004°49'0 0.0
2017-Mar-24 01:26N 52°59' E 004°49'0 0.0
2017-Mar-24 00:32N 52°59' E 004°49'0 0.0
2017-Mar-23 23:29N 52°59' E 004°49'0 0.0
2017-Mar-23 22:20N 52°59' E 004°49'0 0.0
2017-Mar-23 21:23N 52°59' E 004°49'0 0.0
2017-Mar-23 20:32N 52°59' E 004°49'0 0.0
2017-Mar-23 19:32N 52°59' E 004°49'0 0.0
2017-Mar-23 18:32N 52°59' E 004°49'2 1.6
2017-Mar-23 17:32N 52°59' E 004°46'  
2017-Mar-20 10:33N 53°04' E 004°41'5 5.3
2017-Mar-20 09:33N 52°59' E 004°46'2 1.9
2017-Mar-20 08:34N 52°59' E 004°49'0 0.0
2017-Mar-20 07:33N 52°59' E 004°49'0 0.0
2017-Mar-20 06:32N 52°59' E 004°49'0 0.0
2017-Mar-20 05:34N 52°59' E 004°49'0 0.0
2017-Mar-20 04:34N 52°59' E 004°49'0 0.0
2017-Mar-20 03:34N 52°59' E 004°48'0 0.0
2017-Mar-20 02:34N 52°59' E 004°49'0 0.0
2017-Mar-20 01:32N 52°59' E 004°49'0 0.1
2017-Mar-20 00:31N 52°59' E 004°49'0 0.0
2017-Mar-19 23:33N 52°59' E 004°49'0 0.0
2017-Mar-19 22:32N 52°59' E 004°49'0 0.0
2017-Mar-19 21:33N 52°59' E 004°49'0 0.0
2017-Mar-19 20:32N 52°59' E 004°49'0 0.0
2017-Mar-19 19:34N 52°59' E 004°49'0 0.4
2017-Mar-19 18:33N 52°59' E 004°48'2 0.1
2017-Mar-19 04:30N 52°57' E 004°46'0 0.0
2017-Mar-19 03:27N 52°57' E 004°46'0 0.0
2017-Mar-19 02:30N 52°57' E 004°46'0 0.0
2017-Mar-19 01:33N 52°57' E 004°46'0 0.0
2017-Mar-19 00:21N 52°57' E 004°46'0 0.0
2017-Mar-18 23:09N 52°57' E 004°46'0 0.0
2017-Mar-18 22:33N 52°57' E 004°46'0 0.0
2017-Mar-18 20:27N 52°57' E 004°46'0 0.0
2017-Mar-18 19:33N 52°57' E 004°46'0 0.0
2017-Mar-18 14:09N 52°57' E 004°46'0 0.0
2017-Mar-18 13:27N 52°57' E 004°46'0 0.0
2017-Mar-18 12:21N 52°57' E 004°46'0 0.0
2017-Mar-18 11:27N 52°57' E 004°46'0 0.0
2017-Mar-18 10:21N 52°57' E 004°46'0 0.0
2017-Mar-18 09:33N 52°57' E 004°46'0 0.0
2017-Mar-18 08:27N 52°57' E 004°46'0 0.0
2017-Mar-18 07:21N 52°57' E 004°46'0 0.0
2017-Mar-18 06:30N 52°57' E 004°46'0 0.0
2017-Mar-17 22:21N 52°57' E 004°46'0 0.0
2017-Mar-17 21:33N 52°57' E 004°46'0 0.0
2017-Mar-17 20:09N 52°57' E 004°46'0 0.0
2017-Mar-17 19:18N 52°57' E 004°46'0 0.0
2017-Mar-17 18:18N 52°57' E 004°46'0 0.0
2017-Mar-17 05:33N 52°57' E 004°46'0 0.0
2017-Mar-17 01:15N 52°57' E 004°46'0 0.0
2017-Mar-17 00:24N 52°57' E 004°46'0 0.0
2017-Mar-16 18:33N 52°57' E 004°46'0 0.0
2017-Mar-16 17:33N 52°57' E 004°46'0 0.0
2017-Mar-16 16:33N 52°57' E 004°46'0 0.0
2017-Mar-16 14:18N 52°57' E 004°46'0 0.0
2017-Mar-15 10:19N 52°57' E 004°46'1 1.1
2017-Mar-15 09:33N 52°57' E 004°47'1 1.0
2017-Mar-15 08:33N 52°58' E 004°47'5 4.6
2017-Mar-15 07:28N 53°02' E 004°51'0 0.4
2017-Mar-15 06:31N 53°03' E 004°51'0 0.0
2017-Mar-15 05:31N 53°03' E 004°51'0 0.0
2017-Mar-15 04:31N 53°03' E 004°51'0 0.0
2017-Mar-15 03:31N 53°03' E 004°51'  

Dump ship's entire track history